Terminal Aerodrome Forecast
Issued by NWS Charleston, WV

Current Version | Previous Version | Graphics & Text | Print | Product List | Glossary On
Versions: 1 2 3 4 5 6 7 8 9 10 11 12 13 14 15 16 17 18 19 20 21 22
000
FTUS41 KRLX 110500 RRA
TAFBKW
TAF
KBKW 110544Z 1106/1206 00000KT 6SM BR FEW250
      TEMPO 1109/1112 3SM BR
     FM111300 00000KT P6SM FEW250
     FM111500 03004KT P6SM SCT040
     FM120200 00000KT P6SM FEW250=

USA.gov is the U.S. government's official web portal to all federal, state and local government web resources and services.